Time;durP1;ratioP1;P1;durP2;ratioP2;P2;SDS_P1;SDS_P2;PMS_P1;PMS_P2;Temp;Humidity;BMP_temperature;BMP_pressure;BME280_temperature;BME280_humidity;BME280_pressure;Samples;Min_cycle;Max_cycle;Signal;HPM_P1;HPM_P2
2021/12/03 00:02:18;;;;;;;5.20;1.40;;;0.70;99.90;;;;;;5073319;28;20047;-76
2021/12/03 00:04:44;;;;;;;8.05;1.60;;;0.70;99.90;;;;;;5081538;28;20495;-76
2021/12/03 00:07:09;;;;;;;6.07;1.40;;;0.60;99.90;;;;;;5084149;28;20101;-75
2021/12/03 00:09:36;;;;;;;7.95;1.67;;;0.60;99.90;;;;;;5080644;28;20039;-75
2021/12/03 00:12:06;;;;;;;7.85;1.50;;;0.60;99.90;;;;;;5079519;28;20135;-76
2021/12/03 00:14:34;;;;;;;4.32;1.30;;;0.60;99.90;;;;;;5075767;28;20093;-76
2021/12/03 00:17:00;;;;;;;6.32;1.27;;;0.60;99.90;;;;;;5059817;28;20098;-75
2021/12/03 00:19:26;;;;;;;5.80;1.80;;;0.60;99.90;;;;;;5075833;28;20063;-76
2021/12/03 00:21:52;;;;;;;4.43;1.33;;;0.60;99.90;;;;;;5065338;28;20395;-76
2021/12/03 00:24:18;;;;;;;6.15;1.35;;;0.50;99.90;;;;;;5085020;28;20130;-75
2021/12/03 00:26:44;;;;;;;5.88;1.52;;;0.50;99.90;;;;;;5067483;28;20569;-76
2021/12/03 00:29:10;;;;;;;4.50;1.42;;;0.50;99.90;;;;;;5084450;28;20071;-76
2021/12/03 00:31:36;;;;;;;5.70;1.95;;;0.80;99.90;;;;;;5063672;28;20056;-76
2021/12/03 00:34:02;;;;;;;8.10;1.80;;;0.50;99.90;;;;;;5083569;28;20560;-76
2021/12/03 00:36:28;;;;;;;5.93;1.80;;;0.50;99.90;;;;;;5089029;28;20044;-76
2021/12/03 00:38:58;;;;;;;7.30;2.58;;;0.50;99.90;;;;;;5059982;28;20386;-76
2021/12/03 00:41:25;;;;;;;10.88;1.90;;;0.50;99.90;;;;;;5062181;28;20046;-76
2021/12/03 00:43:53;;;;;;;7.10;2.10;;;0.50;99.90;;;;;;5065845;28;20043;-76
2021/12/03 00:46:20;;;;;;;6.20;2.30;;;0.50;99.90;;;;;;5069248;28;20043;-76
2021/12/03 00:48:52;;;;;;;8.05;1.77;;;0.50;99.90;;;;;;5077760;28;20471;-76
2021/12/03 00:51:20;;;;;;;10.07;1.90;;;0.50;99.90;;;;;;5078210;28;20416;-76
2021/12/03 00:53:47;;;;;;;8.90;1.80;;;0.50;99.90;;;;;;5064840;28;20090;-75
2021/12/03 00:56:14;;;;;;;6.00;1.60;;;0.50;99.90;;;;;;5076526;28;20040;-76
2021/12/03 00:58:39;;;;;;;7.45;1.55;;;0.50;99.90;;;;;;5079317;28;20044;-76
2021/12/03 01:01:06;;;;;;;7.30;1.92;;;0.50;99.90;;;;;;5074458;28;20036;-76
2021/12/03 01:03:33;;;;;;;6.03;1.50;;;0.50;99.90;;;;;;5081955;28;20062;-76
2021/12/03 01:05:59;;;;;;;5.97;1.52;;;0.30;99.90;;;;;;5063786;28;20329;-75
2021/12/03 01:08:24;;;;;;;8.80;1.70;;;0.60;99.90;;;;;;5058476;28;20645;-76
2021/12/03 01:10:51;;;;;;;11.35;2.10;;;0.60;99.90;;;;;;5078483;28;20445;-75
2021/12/03 01:13:17;;;;;;;9.18;1.90;;;0.60;99.90;;;;;;5064897;28;20048;-76
2021/12/03 01:15:43;;;;;;;7.63;1.77;;;0.60;99.90;;;;;;5061710;28;20043;-75
2021/12/03 01:18:12;;;;;;;6.15;1.60;;;1.10;99.90;;;;;;5072395;28;20467;-75
2021/12/03 01:20:40;;;;;;;9.23;1.48;;;0.60;99.90;;;;;;5077798;28;20373;-76
2021/12/03 01:23:07;;;;;;;7.10;1.60;;;0.60;99.90;;;;;;5075673;28;20394;-76
2021/12/03 01:25:33;;;;;;;5.50;1.60;;;0.60;99.90;;;;;;5083646;28;20485;-75
2021/12/03 01:28:00;;;;;;;5.05;1.20;;;0.60;99.90;;;;;;5077869;28;20044;-75
2021/12/03 01:30:28;;;;;;;10.32;1.60;;;0.60;99.90;;;;;;5078514;28;20048;-75
2021/12/03 01:32:55;;;;;;;12.93;1.60;;;0.70;99.90;;;;;;5076951;28;20044;-75
2021/12/03 01:35:21;;;;;;;5.00;1.30;;;0.70;99.90;;;;;;5077350;28;20042;-75
2021/12/03 01:37:48;;;;;;;6.35;1.80;;;0.70;99.90;;;;;;5085143;28;20044;-76
2021/12/03 01:40:17;;;;;;;6.82;1.67;;;0.70;99.90;;;;;;5077683;28;20041;-76
2021/12/03 01:42:45;;;;;;;7.30;2.00;;;0.70;99.90;;;;;;5073553;28;20051;-76
2021/12/03 01:45:15;;;;;;;8.48;1.77;;;0.70;99.90;;;;;;5077838;28;20415;-76
2021/12/03 01:47:43;;;;;;;8.85;1.63;;;0.70;99.90;;;;;;5076875;28;20055;-75
2021/12/03 01:50:10;;;;;;;10.10;1.45;;;0.70;99.90;;;;;;5078643;28;20166;-75
2021/12/03 01:52:36;;;;;;;11.57;1.75;;;0.70;99.90;;;;;;5075054;28;20041;-76
2021/12/03 01:55:04;;;;;;;8.10;1.25;;;0.70;99.90;;;;;;5070166;28;20043;-76
2021/12/03 01:57:30;;;;;;;7.82;1.30;;;0.80;99.90;;;;;;5053756;28;20087;-75
2021/12/03 01:59:55;;;;;;;9.35;1.50;;;0.80;99.90;;;;;;5084186;28;20116;-75
2021/12/03 02:02:21;;;;;;;8.27;1.45;;;0.80;99.90;;;;;;5085548;28;20043;-76
2021/12/03 02:04:47;;;;;;;5.95;1.40;;;0.80;99.90;;;;;;5068704;28;20503;-76
2021/12/03 02:07:13;;;;;;;8.93;1.50;;;0.80;99.90;;;;;;5080192;28;20040;-76
2021/12/03 02:09:39;;;;;;;4.97;1.17;;;0.80;99.90;;;;;;5085081;28;20044;-75
2021/12/03 02:12:05;;;;;;;9.30;1.80;;;0.80;99.90;;;;;;5084180;28;20032;-75
2021/12/03 02:14:31;;;;;;;6.15;1.48;;;0.90;99.90;;;;;;5058767;28;20039;-76
2021/12/03 02:16:56;;;;;;;4.22;1.40;;;0.90;99.90;;;;;;5072522;28;20559;-76
2021/12/03 02:19:22;;;;;;;6.90;1.73;;;0.90;99.90;;;;;;5067176;28;20039;-75
2021/12/03 02:21:48;;;;;;;5.53;1.48;;;0.90;99.90;;;;;;5060258;28;20039;-75
2021/12/03 02:24:14;;;;;;;11.07;1.48;;;0.90;99.90;;;;;;5068765;28;20044;-76
2021/12/03 02:26:42;;;;;;;5.82;1.65;;;0.30;99.90;;;;;;5076780;28;20047;-76
2021/12/03 02:29:07;;;;;;;5.93;1.30;;;0.90;99.90;;;;;;5061818;28;20039;-75
2021/12/03 02:31:33;;;;;;;3.75;1.35;;;0.90;99.90;;;;;;5098684;28;20035;-76
2021/12/03 02:33:59;;;;;;;10.20;1.50;;;0.90;99.90;;;;;;5075323;28;20176;-76
2021/12/03 02:36:25;;;;;;;10.27;1.55;;;1.50;99.90;;;;;;5079636;28;20146;-75
2021/12/03 02:38:52;;;;;;;6.47;1.58;;;1.00;99.90;;;;;;5085614;28;20398;-76
2021/12/03 02:41:18;;;;;;;9.90;1.80;;;1.00;99.90;;;;;;5083833;28;20043;-76
2021/12/03 02:43:44;;;;;;;6.50;1.33;;;1.00;99.90;;;;;;5079853;28;20050;-76
2021/12/03 02:46:10;;;;;;;5.07;1.65;;;1.00;99.90;;;;;;5084586;28;20091;-75
2021/12/03 02:48:36;;;;;;;6.93;1.67;;;1.00;99.90;;;;;;5069501;28;20079;-76
2021/12/03 02:51:04;;;;;;;11.23;2.38;;;1.00;99.90;;;;;;5079444;28;20165;-76
2021/12/03 02:53:30;;;;;;;11.23;1.50;;;1.00;99.90;;;;;;5084582;28;20114;-76
2021/12/03 02:55:56;;;;;;;7.68;1.90;;;1.00;99.90;;;;;;5086735;28;20047;-76
2021/12/03 02:58:21;;;;;;;11.07;3.10;;;1.00;99.90;;;;;;5098458;28;20044;-76
2021/12/03 03:00:50;;;;;;;7.15;1.73;;;1.10;99.90;;;;;;5088492;28;20040;-76
2021/12/03 03:03:16;;;;;;;9.65;1.75;;;1.10;99.90;;;;;;5080662;28;20043;-76
2021/12/03 03:05:46;;;;;;;9.10;1.92;;;1.10;99.90;;;;;;5072311;28;20039;-76
2021/12/03 03:08:12;;;;;;;9.68;2.35;;;1.10;99.90;;;;;;5069938;28;20044;-76
2021/12/03 03:10:40;;;;;;;8.40;2.20;;;1.10;99.90;;;;;;5099071;28;20065;-76
2021/12/03 03:13:06;;;;;;;9.80;2.40;;;1.10;99.90;;;;;;5066883;28;20088;-76
2021/12/03 03:15:32;;;;;;;6.95;2.67;;;1.10;99.90;;;;;;5093509;28;20130;-76
2021/12/03 03:18:11;;;;;;;13.43;3.00;;;1.10;99.90;;;;;;5089434;28;20043;-76
2021/12/03 03:20:39;;;;;;;9.32;3.38;;;1.10;99.90;;;;;;5074366;28;20039;-76
2021/12/03 03:23:05;;;;;;;17.00;3.65;;;1.10;99.90;;;;;;5080592;28;20044;-76
2021/12/03 03:25:32;;;;;;;13.88;4.38;;;1.10;99.90;;;;;;5090514;28;20040;-75
2021/12/03 03:27:58;;;;;;;17.85;4.60;;;1.20;99.90;;;;;;5072481;28;20039;-77
2021/12/03 03:30:23;;;;;;;14.45;4.30;;;1.20;99.90;;;;;;5085233;28;20432;-76
2021/12/03 03:32:50;;;;;;;13.65;4.82;;;1.20;99.90;;;;;;5067993;28;20039;-76
2021/12/03 03:35:15;;;;;;;16.83;5.03;;;1.20;99.90;;;;;;5067319;28;20126;-76
2021/12/03 03:37:41;;;;;;;17.83;5.75;;;1.20;99.90;;;;;;5069611;28;20559;-76
2021/12/03 03:40:08;;;;;;;15.18;6.75;;;1.20;99.90;;;;;;5083098;28;20035;-76
2021/12/03 03:42:34;;;;;;;19.70;8.02;;;1.20;99.90;;;;;;5074133;28;20059;-76
2021/12/03 03:45:02;;;;;;;22.42;8.32;;;1.30;99.90;;;;;;5072334;28;20040;-76
2021/12/03 03:47:28;;;;;;;21.23;9.38;;;1.30;99.90;;;;;;5082546;28;20051;-77
2021/12/03 03:49:54;;;;;;;19.95;9.85;;;1.20;99.90;;;;;;5078299;28;20055;-77
2021/12/03 03:52:20;;;;;;;23.02;12.18;;;1.30;99.90;;;;;;5087380;28;20166;-76
2021/12/03 03:54:46;;;;;;;27.02;14.70;;;1.30;99.90;;;;;;5101336;28;20115;-76
2021/12/03 03:57:12;;;;;;;27.95;14.45;;;1.30;99.90;;;;;;5085248;28;20444;-76
2021/12/03 03:59:38;;;;;;;28.13;16.05;;;1.30;99.90;;;;;;5063462;28;20036;-76
2021/12/03 04:02:04;;;;;;;33.42;17.45;;;1.30;99.90;;;;;;5064213;28;20079;-76
2021/12/03 04:04:30;;;;;;;32.92;16.27;;;1.30;99.90;;;;;;5066481;28;20455;-76
2021/12/03 04:06:56;;;;;;;33.50;19.50;;;1.30;99.90;;;;;;5080387;28;20047;-76
2021/12/03 04:09:21;;;;;;;31.95;19.25;;;1.30;99.90;;;;;;5079538;28;20044;-76
2021/12/03 04:11:47;;;;;;;38.28;21.25;;;1.30;99.90;;;;;;5088541;28;20038;-76
2021/12/03 04:14:13;;;;;;;35.53;21.45;;;1.40;99.90;;;;;;5084451;28;20523;-76
2021/12/03 04:16:39;;;;;;;42.22;21.42;;;1.40;99.90;;;;;;5093204;28;20044;-75
2021/12/03 04:19:06;;;;;;;37.00;20.75;;;1.40;99.90;;;;;;5084235;28;20602;-76
2021/12/03 04:21:31;;;;;;;33.22;20.50;;;1.30;99.90;;;;;;5069586;28;20409;-76
2021/12/03 04:23:57;;;;;;;40.60;21.10;;;1.40;99.90;;;;;;5084912;28;20039;-75
2021/12/03 04:26:23;;;;;;;36.03;21.02;;;1.40;99.90;;;;;;5079082;28;20463;-76
2021/12/03 04:28:49;;;;;;;32.20;19.98;;;1.40;99.90;;;;;;5081126;28;20040;-76
2021/12/03 04:31:15;;;;;;;36.47;21.70;;;1.30;99.90;;;;;;5080986;28;20051;-76
2021/12/03 04:33:41;;;;;;;35.17;20.08;;;1.30;99.90;;;;;;5082802;28;20043;-77
2021/12/03 04:36:07;;;;;;;35.95;20.75;;;1.30;99.90;;;;;;5082009;28;20047;-75
2021/12/03 04:38:33;;;;;;;31.23;19.98;;;1.30;99.90;;;;;;5088788;28;20039;-76
2021/12/03 04:41:01;;;;;;;29.95;19.60;;;1.60;99.90;;;;;;5080678;28;20294;-76
2021/12/03 04:43:28;;;;;;;32.25;19.80;;;1.30;99.90;;;;;;5081315;28;20127;-76
2021/12/03 04:45:54;;;;;;;33.97;20.73;;;1.20;99.90;;;;;;5071459;28;20564;-76
2021/12/03 04:48:19;;;;;;;34.03;18.67;;;1.20;99.90;;;;;;5083703;28;20047;-76
2021/12/03 04:50:46;;;;;;;29.77;19.10;;;1.20;99.90;;;;;;5078461;28;20047;-76
2021/12/03 04:53:13;;;;;;;34.85;19.00;;;1.20;99.90;;;;;;5084778;28;20075;-77
2021/12/03 04:55:39;;;;;;;34.42;20.08;;;1.20;99.90;;;;;;5087180;28;20105;-76
2021/12/03 04:58:06;;;;;;;31.63;18.67;;;1.20;99.90;;;;;;5077306;28;20052;-76
2021/12/03 05:00:41;;;;;;;33.60;18.80;;;1.20;99.90;;;;;;5097502;28;20623;-76
2021/12/03 05:03:08;;;;;;;32.25;18.75;;;1.20;99.90;;;;;;5072557;28;20062;-76
2021/12/03 05:05:35;;;;;;;32.60;18.85;;;1.20;99.90;;;;;;5064441;28;20048;-76
2021/12/03 05:08:10;;;;;;;30.15;18.48;;;1.20;99.90;;;;;;5067712;28;20247;-76
2021/12/03 05:10:39;;;;;;;32.63;19.05;;;1.20;99.90;;;;;;5069440;28;20639;-76
2021/12/03 05:13:18;;;;;;;28.73;18.23;;;1.40;99.90;;;;;;5101313;28;20043;-76
2021/12/03 05:15:45;;;;;;;36.13;17.85;;;1.20;99.90;;;;;;5073178;28;20138;-76
2021/12/03 05:18:14;;;;;;;32.13;18.48;;;1.20;99.90;;;;;;5078730;28;20451;-76
2021/12/03 05:20:42;;;;;;;31.80;18.60;;;1.30;99.90;;;;;;5080633;28;20044;-76
2021/12/03 05:23:08;;;;;;;30.60;18.45;;;1.20;99.90;;;;;;5071921;28;20047;-76
2021/12/03 05:25:34;;;;;;;35.42;18.40;;;1.20;99.90;;;;;;5088608;28;20726;-76
2021/12/03 05:28:01;;;;;;;38.15;19.42;;;1.30;99.90;;;;;;5096040;28;20375;-76
2021/12/03 05:30:27;;;;;;;30.75;18.00;;;1.30;99.90;;;;;;5096678;28;20048;-76
2021/12/03 05:32:53;;;;;;;32.13;17.75;;;1.40;99.90;;;;;;5088328;28;20050;-77
2021/12/03 05:35:20;;;;;;;28.23;17.02;;;1.30;99.90;;;;;;5088873;28;20062;-77
2021/12/03 05:37:45;;;;;;;28.95;17.42;;;1.30;99.90;;;;;;5083193;28;20043;-77
2021/12/03 05:40:12;;;;;;;26.98;16.73;;;1.30;99.90;;;;;;5079161;28;20063;-77
2021/12/03 05:42:38;;;;;;;29.83;16.75;;;1.30;99.90;;;;;;5089160;28;20051;-77
2021/12/03 05:45:09;;;;;;;27.90;16.65;;;1.30;99.90;;;;;;5073109;28;20047;-77
2021/12/03 05:47:35;;;;;;;26.50;17.27;;;1.40;99.90;;;;;;5071178;28;20056;-77
2021/12/03 05:50:03;;;;;;;27.02;17.50;;;1.30;99.90;;;;;;5061370;28;20335;-77
2021/12/03 05:52:28;;;;;;;27.02;16.75;;;1.30;99.90;;;;;;5072572;28;20357;-77
2021/12/03 05:54:54;;;;;;;26.27;17.63;;;1.30;99.90;;;;;;5058180;28;20067;-77
2021/12/03 05:57:20;;;;;;;27.95;16.95;;;1.30;99.90;;;;;;5071270;28;20060;-78
2021/12/03 05:59:46;;;;;;;30.00;16.85;;;1.30;99.90;;;;;;5071537;28;20049;-77
2021/12/03 06:02:12;;;;;;;24.58;16.58;;;1.20;99.90;;;;;;5079533;28;20050;-77
2021/12/03 06:04:37;;;;;;;23.73;16.58;;;1.20;99.90;;;;;;5066865;28;20085;-77
2021/12/03 06:07:04;;;;;;;25.73;16.55;;;1.20;99.90;;;;;;5083073;28;20052;-77
2021/12/03 06:09:30;;;;;;;29.15;17.10;;;1.30;99.90;;;;;;5058683;28;20438;-78
2021/12/03 06:11:55;;;;;;;26.70;16.90;;;1.30;99.90;;;;;;5055087;28;20761;-77
2021/12/03 06:14:21;;;;;;;34.50;17.20;;;1.30;99.90;;;;;;5067807;28;20056;-79
2021/12/03 06:16:47;;;;;;;30.23;18.27;;;1.30;99.90;;;;;;5078559;28;20036;-78
2021/12/03 06:19:13;;;;;;;25.58;16.42;;;1.30;99.90;;;;;;5083139;28;20036;-78
2021/12/03 06:21:39;;;;;;;29.40;17.45;;;1.30;99.90;;;;;;5074453;28;20040;-79
2021/12/03 06:24:05;;;;;;;26.17;16.38;;;1.30;99.90;;;;;;5070438;28;20044;-78
2021/12/03 06:26:30;;;;;;;28.85;18.08;;;1.30;99.90;;;;;;5080067;28;20040;-77
2021/12/03 06:28:56;;;;;;;30.45;17.42;;;1.30;99.90;;;;;;5077422;28;20039;-79
2021/12/03 06:31:22;;;;;;;26.63;17.30;;;1.40;99.90;;;;;;5080268;28;20071;-78
2021/12/03 06:33:47;;;;;;;28.02;16.95;;;1.40;99.90;;;;;;5081642;28;20051;-79
2021/12/03 06:36:13;;;;;;;31.65;18.90;;;1.40;99.90;;;;;;5055136;28;20546;-77
2021/12/03 06:38:39;;;;;;;31.98;17.55;;;1.50;99.90;;;;;;5070817;28;20681;-78
2021/12/03 06:41:06;;;;;;;31.35;17.17;;;1.50;99.90;;;;;;5064953;28;20545;-78
2021/12/03 06:43:32;;;;;;;33.08;18.63;;;1.50;99.90;;;;;;5058939;28;20131;-78
2021/12/03 06:45:58;;;;;;;26.80;17.65;;;1.60;99.90;;;;;;5061172;28;20051;-78
2021/12/03 06:48:24;;;;;;;27.35;16.35;;;1.60;99.90;;;;;;5071421;28;21473;-78
2021/12/03 06:50:50;;;;;;;28.73;16.77;;;1.60;99.90;;;;;;5073515;28;20468;-78
2021/12/03 06:53:19;;;;;;;26.88;15.10;;;1.70;99.90;;;;;;5060214;28;20417;-78
2021/12/03 06:55:51;;;;;;;24.67;14.25;;;1.80;99.90;;;;;;5058152;28;20044;-78
2021/12/03 06:58:19;;;;;;;27.23;15.70;;;1.70;99.90;;;;;;5056266;28;20044;-78
2021/12/03 07:00:46;;;;;;;24.45;14.60;;;1.80;99.90;;;;;;5071474;28;20060;-77
2021/12/03 07:03:12;;;;;;;26.13;13.55;;;1.80;99.90;;;;;;5057602;28;20133;-78
2021/12/03 07:05:38;;;;;;;25.05;13.80;;;1.80;99.90;;;;;;5062358;28;20036;-77
2021/12/03 07:08:05;;;;;;;26.58;13.65;;;1.80;99.90;;;;;;5077511;28;20032;-77
2021/12/03 07:10:31;;;;;;;21.88;12.55;;;1.90;99.90;;;;;;5078689;28;20438;-78
2021/12/03 07:12:58;;;;;;;26.63;13.68;;;1.90;99.90;;;;;;5078466;28;20063;-77
2021/12/03 07:15:24;;;;;;;24.35;13.68;;;1.90;99.90;;;;;;5077992;28;20042;-78
2021/12/03 07:17:50;;;;;;;28.70;11.57;;;2.00;99.90;;;;;;5077044;28;20044;-77
2021/12/03 07:20:19;;;;;;;21.55;11.30;;;2.00;99.90;;;;;;5050402;28;20067;-78
2021/12/03 07:22:44;;;;;;;22.90;10.82;;;2.00;99.90;;;;;;5051756;28;20058;-77
2021/12/03 07:25:11;;;;;;;18.20;9.27;;;2.00;99.90;;;;;;5048694;28;20044;-78
2021/12/03 07:27:37;;;;;;;17.33;8.73;;;2.10;99.90;;;;;;5051759;28;20155;-78
2021/12/03 07:30:04;;;;;;;14.25;8.02;;;2.10;99.90;;;;;;5059424;28;20044;-79
2021/12/03 07:32:30;;;;;;;18.95;8.40;;;2.10;99.90;;;;;;5059492;28;20432;-78
2021/12/03 07:34:57;;;;;;;16.35;7.97;;;2.10;99.90;;;;;;5075595;28;20382;-77
2021/12/03 07:37:23;;;;;;;20.85;8.40;;;2.10;99.90;;;;;;5075457;28;20048;-77
2021/12/03 07:39:48;;;;;;;13.50;7.78;;;2.10;99.90;;;;;;5056922;28;20051;-77
2021/12/03 07:42:14;;;;;;;14.35;6.70;;;2.20;99.90;;;;;;5050918;28;20564;-77
2021/12/03 07:44:40;;;;;;;17.48;7.47;;;2.20;99.90;;;;;;5054453;28;20103;-77
2021/12/03 07:47:06;;;;;;;18.05;7.00;;;2.20;99.90;;;;;;5067758;28;20040;-77
2021/12/03 07:49:32;;;;;;;16.73;5.95;;;2.30;99.90;;;;;;5074697;28;20039;-78
2021/12/03 07:51:58;;;;;;;16.05;6.25;;;2.30;99.90;;;;;;5076483;28;20496;-77
2021/12/03 07:54:24;;;;;;;15.23;5.95;;;2.30;99.90;;;;;;5070881;28;20054;-77
2021/12/03 07:56:50;;;;;;;13.15;5.40;;;2.30;99.90;;;;;;5048702;28;20416;-77
2021/12/03 07:59:16;;;;;;;11.80;4.95;;;2.40;99.90;;;;;;5069847;28;20044;-77
2021/12/03 08:01:42;;;;;;;19.20;5.30;;;2.40;99.90;;;;;;5078591;28;20047;-76
2021/12/03 08:04:10;;;;;;;11.77;4.70;;;2.40;99.90;;;;;;5063836;28;20043;-77
2021/12/03 08:06:39;;;;;;;15.38;5.00;;;2.50;99.90;;;;;;5063778;28;20522;-77
2021/12/03 08:09:06;;;;;;;12.73;4.60;;;2.40;99.90;;;;;;5062423;28;20149;-80
2021/12/03 08:11:33;;;;;;;15.93;4.70;;;2.50;99.90;;;;;;5079654;28;20417;-77
2021/12/03 08:13:59;;;;;;;15.70;4.50;;;2.50;99.90;;;;;;5067934;28;20661;-79
2021/12/03 08:16:24;;;;;;;14.40;4.50;;;2.50;99.90;;;;;;5046460;28;20041;-78
2021/12/03 08:18:50;;;;;;;11.02;4.45;;;2.60;99.90;;;;;;5048645;28;20043;-78
2021/12/03 08:21:16;;;;;;;13.38;4.32;;;2.60;99.90;;;;;;5077600;27;20135;-78
2021/12/03 08:23:42;;;;;;;12.50;4.78;;;2.60;99.90;;;;;;5061910;28;20823;-78
2021/12/03 08:26:08;;;;;;;13.55;5.00;;;2.60;99.90;;;;;;5061930;28;20733;-77
2021/12/03 08:28:34;;;;;;;17.02;4.20;;;2.60;99.90;;;;;;5047323;28;20648;-77
2021/12/03 08:31:00;;;;;;;11.60;4.18;;;2.60;99.90;;;;;;5062257;28;21024;-78
2021/12/03 08:33:26;;;;;;;15.95;4.57;;;2.70;99.90;;;;;;5066415;28;20036;-78
2021/12/03 08:35:52;;;;;;;19.23;5.38;;;2.70;99.90;;;;;;5068657;28;20131;-78
2021/12/03 08:38:19;;;;;;;14.43;5.40;;;2.70;99.90;;;;;;5052984;28;20177;-79
2021/12/03 08:40:44;;;;;;;14.00;4.93;;;2.80;99.90;;;;;;5054483;28;20075;-81
2021/12/03 08:43:10;;;;;;;14.60;5.03;;;2.80;99.90;;;;;;5075617;28;20055;-78
2021/12/03 08:45:38;;;;;;;18.63;5.15;;;2.80;99.90;;;;;;5059439;28;20501;-80
2021/12/03 08:48:05;;;;;;;17.00;5.13;;;2.80;99.90;;;;;;5057994;28;20044;-80
2021/12/03 08:50:35;;;;;;;17.13;6.50;;;2.80;99.90;;;;;;5050257;28;20422;-80
2021/12/03 08:55:29;;;;;;;17.23;5.85;;;2.90;99.90;;;;;;5070182;28;20051;-77
2021/12/03 08:57:55;;;;;;;16.60;6.88;;;2.90;99.90;;;;;;5055207;28;20070;-80
2021/12/03 09:00:21;;;;;;;20.05;6.57;;;2.90;99.90;;;;;;5074026;28;20056;-81
2021/12/03 09:02:47;;;;;;;22.25;7.57;;;2.90;99.90;;;;;;5084143;27;20043;-81
2021/12/03 09:05:13;;;;;;;16.95;6.55;;;3.00;99.90;;;;;;5059522;28;20283;-80
2021/12/03 09:07:40;;;;;;;15.77;6.40;;;3.00;99.90;;;;;;5060256;28;20584;-80
2021/12/03 09:10:10;;;;;;;15.48;6.63;;;3.00;99.90;;;;;;5071602;28;20066;-80
2021/12/03 09:12:37;;;;;;;19.50;7.10;;;3.00;99.90;;;;;;5057918;28;20082;-80
2021/12/03 09:15:07;;;;;;;25.60;8.32;;;3.10;99.90;;;;;;5053329;28;20048;-80
2021/12/03 09:23:06;;;;;;;18.35;7.65;;;3.10;99.90;;;;;;5068678;28;20661;-81
2021/12/03 09:25:35;;;;;;;22.10;8.63;;;3.20;99.90;;;;;;5072334;28;20408;-80
2021/12/03 09:28:03;;;;;;;18.92;7.55;;;3.20;99.90;;;;;;5067289;28;20371;-80
2021/12/03 09:30:37;;;;;;;22.48;7.82;;;3.20;99.90;;;;;;5070048;28;20044;-81
2021/12/03 09:33:05;;;;;;;25.40;9.77;;;3.30;99.90;;;;;;5073714;28;20139;-78
2021/12/03 09:35:31;;;;;;;19.30;9.20;;;3.30;99.90;;;;;;5074409;28;20464;-81
2021/12/03 09:37:57;;;;;;;23.75;9.32;;;3.30;99.90;;;;;;5058351;28;20059;-80
2021/12/03 09:40:25;;;;;;;20.13;9.73;;;3.40;99.90;;;;;;5070395;28;20044;-82
2021/12/03 09:42:51;;;;;;;28.35;10.15;;;3.40;99.90;;;;;;5073146;28;20091;-81
2021/12/03 09:45:17;;;;;;;23.85;10.05;;;3.40;99.90;;;;;;5060916;28;20075;-81
2021/12/03 09:47:43;;;;;;;23.73;9.70;;;3.40;99.90;;;;;;5055886;28;20097;-81
2021/12/03 09:50:14;;;;;;;22.33;9.38;;;3.40;99.90;;;;;;5073149;28;20105;-80
2021/12/03 09:55:25;;;;;;;28.25;9.85;;;4.20;99.90;;;;;;5074452;28;20150;-81
2021/12/03 10:00:44;;;;;;;23.55;8.30;;;3.60;99.90;;;;;;5076853;28;20060;-80
2021/12/03 10:03:36;;;;;;;22.73;8.18;;;3.60;99.90;;;;;;5066180;28;20431;-79
2021/12/03 10:07:36;;;;;;;20.65;7.63;;;3.60;99.90;;;;;;5056867;28;20607;-81
2021/12/03 10:14:37;;;;;;;19.95;7.15;;;3.60;99.90;;;;;;5069797;28;20068;-83
2021/12/03 10:30:48;;;;;;;23.77;7.57;;;3.70;99.90;;;;;;5079737;28;20040;-84
2021/12/03 10:44:09;;;;;;;20.65;6.22;;;3.70;99.90;;;;;;5076802;28;20048;-79
2021/12/03 10:46:52;;;;;;;22.25;6.40;;;3.70;99.90;;;;;;5075195;28;20416;-78
2021/12/03 11:13:46;;;;;;;17.33;5.93;;;3.70;99.90;;;;;;5070399;28;20409;-82
2021/12/03 11:19:49;;;;;;;17.27;4.97;;;3.70;99.90;;;;;;5073805;28;20045;-80
2021/12/03 13:24:00;;;;;;;17.27;6.30;;;3.50;99.90;;;;;;5063284;28;20139;-83
2021/12/03 13:32:31;;;;;;;13.85;5.20;;;3.50;99.90;;;;;;5076428;28;20047;-79
2021/12/03 14:03:49;;;;;;;12.43;5.03;;;3.80;99.90;;;;;;5076552;28;20104;-81
2021/12/03 14:52:37;;;;;;;16.17;5.10;;;4.00;99.90;;;;;;5010947;28;20539;-85
2021/12/03 14:55:23;;;;;;;10.00;4.40;;;3.80;99.90;;;;;;5087055;28;20348;-83
2021/12/03 14:57:56;;;;;;;12.35;4.80;;;4.10;99.90;;;;;;5069230;28;20062;-82
2021/12/03 15:00:31;;;;;;;14.00;4.72;;;4.10;99.90;;;;;;5067326;28;20303;-82
2021/12/03 15:08:49;;;;;;;11.88;4.20;;;4.10;99.90;;;;;;5100109;28;20136;-84
2021/12/03 15:19:24;;;;;;;11.88;4.80;;;4.00;99.90;;;;;;5083626;28;21166;-82
2021/12/03 15:57:36;;;;;;;14.43;8.15;;;4.00;99.90;;;;;;5078133;28;20063;-83
2021/12/03 16:06:05;;;;;;;16.88;9.32;;;4.00;99.90;;;;;;5066202;28;20338;-83
2021/12/03 16:08:30;;;;;;;23.67;12.15;;;4.00;99.90;;;;;;5068793;28;20740;-83
2021/12/03 16:11:11;;;;;;;15.13;9.95;;;4.00;99.90;;;;;;5047891;28;20198;-82
2021/12/03 16:13:48;;;;;;;16.17;10.70;;;4.00;99.90;;;;;;5056161;28;20044;-83
2021/12/03 16:22:30;;;;;;;17.15;11.05;;;4.10;99.90;;;;;;5036696;28;20417;-85
2021/12/03 16:25:18;;;;;;;16.35;10.88;;;4.10;99.90;;;;;;5037352;28;20056;-82
2021/12/03 16:52:18;;;;;;;19.17;12.05;;;4.10;99.90;;;;;;5077308;28;20036;-82
2021/12/03 16:54:49;;;;;;;18.70;13.70;;;4.10;99.90;;;;;;5063952;28;20052;-82
2021/12/03 16:57:16;;;;;;;21.35;14.48;;;4.10;99.90;;;;;;5071944;28;20060;-81
2021/12/03 16:59:45;;;;;;;22.38;14.48;;;4.10;99.90;;;;;;5057624;28;20048;-83
2021/12/03 17:02:18;;;;;;;20.98;14.68;;;4.10;99.90;;;;;;5057035;28;20044;-80
2021/12/03 17:28:43;;;;;;;22.00;15.25;;;4.10;99.90;;;;;;5066234;28;20469;-83
2021/12/03 17:44:59;;;;;;;24.95;15.73;;;4.10;99.90;;;;;;5066081;28;20062;-80
2021/12/03 17:53:20;;;;;;;27.23;20.10;;;4.10;99.90;;;;;;5073082;28;20083;-79
2021/12/03 17:56:17;;;;;;;24.30;16.73;;;4.20;99.90;;;;;;5068347;28;20410;-81
2021/12/03 17:59:02;;;;;;;23.05;16.85;;;4.20;99.90;;;;;;5072201;28;20048;-80
2021/12/03 18:01:48;;;;;;;22.15;16.10;;;4.10;99.90;;;;;;5059170;28;20103;-79
2021/12/03 18:04:34;;;;;;;24.42;17.42;;;4.10;99.90;;;;;;5053208;28;20079;-79
2021/12/03 18:52:23;;;;;;;34.13;23.00;;;4.40;99.90;;;;;;5082258;28;20858;-79
2021/12/03 18:55:05;;;;;;;35.33;23.20;;;4.40;99.90;;;;;;5044990;28;20087;-80
2021/12/03 18:57:39;;;;;;;35.05;22.65;;;4.40;99.90;;;;;;5047798;28;20228;-80
2021/12/03 19:00:09;;;;;;;32.53;21.60;;;4.40;99.90;;;;;;5065062;28;20450;-80
2021/12/03 19:02:34;;;;;;;32.47;21.60;;;4.40;99.90;;;;;;5065576;28;20503;-81
2021/12/03 19:05:06;;;;;;;38.55;23.42;;;4.50;99.90;;;;;;5065201;28;20140;-80
2021/12/03 19:07:40;;;;;;;36.20;23.23;;;4.40;99.90;;;;;;5067684;28;20056;-79
2021/12/03 19:10:11;;;;;;;36.92;23.02;;;4.40;99.90;;;;;;5067947;28;20052;-80
2021/12/03 19:12:41;;;;;;;40.03;23.88;;;4.40;99.90;;;;;;5058111;28;20080;-79
2021/12/03 19:15:07;;;;;;;35.08;22.95;;;4.40;99.90;;;;;;5046773;28;20079;-78
2021/12/03 19:17:37;;;;;;;36.45;22.35;;;4.50;99.90;;;;;;5048357;28;20513;-80
2021/12/03 19:20:07;;;;;;;37.35;22.42;;;4.50;99.90;;;;;;5050705;28;20067;-79
2021/12/03 19:22:33;;;;;;;39.08;24.88;;;4.50;99.90;;;;;;5063078;28;20037;-80
2021/12/03 19:24:59;;;;;;;39.72;24.20;;;4.50;99.90;;;;;;5046578;28;20445;-80
2021/12/03 19:27:27;;;;;;;43.13;24.08;;;4.50;99.90;;;;;;5064304;28;20692;-80
2021/12/03 19:29:54;;;;;;;44.03;26.40;;;4.60;99.90;;;;;;5057761;28;20048;-80
2021/12/03 19:32:26;;;;;;;43.05;26.25;;;4.50;99.90;;;;;;5044732;28;20508;-80
2021/12/03 19:34:53;;;;;;;46.55;28.25;;;4.50;99.90;;;;;;5065680;28;20182;-80
2021/12/03 19:37:18;;;;;;;49.10;29.60;;;4.50;99.90;;;;;;5064839;28;20401;-80
2021/12/03 19:39:44;;;;;;;43.70;27.30;;;4.50;99.90;;;;;;5064436;28;20048;-79
2021/12/03 19:42:17;;;;;;;51.75;30.80;;;4.50;99.90;;;;;;5070457;28;20758;-81
2021/12/03 19:44:51;;;;;;;46.63;28.58;;;4.50;99.90;;;;;;5054028;28;20055;-80
2021/12/03 19:47:20;;;;;;;49.83;29.25;;;4.50;99.90;;;;;;5083075;28;20052;-79
2021/12/03 19:50:03;;;;;;;49.53;29.67;;;4.50;99.90;;;;;;5066871;28;20047;-79
2021/12/03 19:52:36;;;;;;;53.40;29.20;;;4.50;99.90;;;;;;5052858;28;20113;-80
2021/12/03 19:55:02;;;;;;;50.83;29.50;;;4.50;99.90;;;;;;5066794;28;20047;-80
2021/12/03 19:57:28;;;;;;;53.92;30.85;;;4.50;99.90;;;;;;5051443;28;20169;-80
2021/12/03 19:59:53;;;;;;;52.50;31.10;;;4.50;99.90;;;;;;5050440;28;20499;-78
2021/12/03 20:02:19;;;;;;;50.25;29.98;;;4.50;99.90;;;;;;5055179;28;20511;-81
2021/12/03 20:04:46;;;;;;;51.80;31.90;;;4.50;99.90;;;;;;5071140;28;20036;-80
2021/12/03 20:07:11;;;;;;;56.58;32.13;;;4.50;99.90;;;;;;5054576;28;20032;-80
2021/12/03 20:09:46;;;;;;;54.22;33.30;;;4.50;99.90;;;;;;5070961;28;20119;-81
2021/12/03 20:12:15;;;;;;;53.40;31.83;;;4.50;99.90;;;;;;5052273;28;20127;-80
2021/12/03 20:14:43;;;;;;;51.33;31.58;;;4.50;99.90;;;;;;5053488;28;20048;-80
2021/12/03 20:17:23;;;;;;;55.40;32.45;;;4.50;99.90;;;;;;5086626;28;20048;-80
2021/12/03 20:19:55;;;;;;;58.35;33.38;;;4.50;99.90;;;;;;5051704;28;20097;-80